Time;durP1;ratioP1;P1;durP2;ratioP2;P2;SDS_P1;SDS_P2;PMS_P1;PMS_P2;Temp;Humidity;BMP_temperature;BMP_pressure;BME280_temperature;BME280_humidity;BME280_pressure;Samples;Min_cycle;Max_cycle;Signal;HPM_P1;HPM_P2
2022/10/16 00:00:42;;;;;;;4.03;1.70;;;16.00;81.90;;;;;;4991172;28;20034;-85
2022/10/16 00:03:08;;;;;;;3.88;1.70;;;16.00;81.90;;;;;;4992760;28;20408;-86
2022/10/16 00:05:39;;;;;;;6.78;1.70;;;15.90;82.10;;;;;;4978801;28;20109;-85
2022/10/16 00:08:05;;;;;;;3.78;1.65;;;15.90;82.20;;;;;;4978556;28;20401;-85
2022/10/16 00:10:31;;;;;;;2.45;1.58;;;16.00;82.20;;;;;;4993690;28;20030;-85
2022/10/16 00:12:56;;;;;;;4.05;1.65;;;15.90;82.50;;;;;;4979235;28;20509;-85
2022/10/16 00:15:22;;;;;;;4.43;2.10;;;15.90;82.50;;;;;;4978958;28;20129;-85
2022/10/16 00:17:47;;;;;;;3.10;1.77;;;15.90;82.70;;;;;;4977527;28;20074;-85
2022/10/16 00:20:13;;;;;;;3.25;1.90;;;15.90;82.80;;;;;;4984682;28;20061;-85
2022/10/16 00:22:39;;;;;;;2.80;1.80;;;15.90;82.80;;;;;;4998387;28;20145;-85
2022/10/16 00:25:05;;;;;;;4.22;1.77;;;15.90;82.60;;;;;;4995972;28;20030;-86
2022/10/16 00:27:31;;;;;;;5.68;2.47;;;15.90;82.80;;;;;;4997809;28;20022;-85
2022/10/16 00:29:57;;;;;;;3.70;2.13;;;15.90;82.90;;;;;;5008002;28;20133;-86
2022/10/16 00:32:23;;;;;;;4.10;2.53;;;15.90;82.90;;;;;;4976054;28;20034;-85
2022/10/16 00:34:49;;;;;;;9.60;2.53;;;15.90;83.00;;;;;;4987766;28;20125;-85
2022/10/16 00:37:15;;;;;;;5.60;3.00;;;15.90;83.10;;;;;;4996377;28;20043;-85
2022/10/16 00:39:40;;;;;;;6.03;2.92;;;15.90;83.20;;;;;;4997969;28;20108;-85
2022/10/16 00:42:06;;;;;;;7.55;3.25;;;15.90;83.20;;;;;;4997117;28;20108;-85
2022/10/16 00:45:09;;;;;;;8.60;3.88;;;15.90;83.60;;;;;;4995291;28;20489;-86
2022/10/16 00:47:44;;;;;;;5.35;2.83;;;15.90;83.70;;;;;;4994152;28;20199;-85
2022/10/16 00:50:26;;;;;;;8.20;3.92;;;15.90;83.80;;;;;;4997430;28;20441;-85
2022/10/16 00:52:52;;;;;;;7.35;3.90;;;15.90;83.90;;;;;;4981056;28;20030;-85
2022/10/16 00:55:18;;;;;;;9.00;4.00;;;15.90;84.00;;;;;;5000943;28;20113;-85
2022/10/16 00:57:45;;;;;;;5.20;3.50;;;15.90;84.00;;;;;;4996043;28;20109;-85
2022/10/16 01:00:15;;;;;;;10.63;3.63;;;15.90;84.20;;;;;;4984259;28;20458;-85
2022/10/16 01:02:41;;;;;;;8.50;3.92;;;15.90;84.10;;;;;;4978882;28;20062;-85
2022/10/16 01:05:07;;;;;;;8.75;4.45;;;15.90;84.30;;;;;;4976990;28;20043;-85
2022/10/16 01:07:44;;;;;;;11.10;3.88;;;15.90;84.30;;;;;;4977670;28;20081;-86
2022/10/16 01:10:48;;;;;;;11.75;5.00;;;15.90;84.30;;;;;;4980697;28;20034;-85
2022/10/16 01:13:55;;;;;;;7.90;3.72;;;15.90;84.20;;;;;;4958670;28;20405;-85
2022/10/16 01:16:41;;;;;;;8.18;2.97;;;16.00;84.20;;;;;;4920660;29;20023;-84
2022/10/16 01:19:44;;;;;;;9.55;3.75;;;16.00;84.20;;;;;;4987974;28;20046;-85
2022/10/16 01:22:10;;;;;;;6.00;3.20;;;16.00;84.20;;;;;;4978654;28;20412;-85
2022/10/16 01:24:54;;;;;;;9.68;3.78;;;16.00;84.20;;;;;;5000614;28;20057;-86
2022/10/16 01:27:27;;;;;;;6.88;3.38;;;16.00;84.20;;;;;;4996989;28;20061;-85
2022/10/16 01:30:13;;;;;;;6.25;3.53;;;16.00;84.30;;;;;;4977476;28;20394;-85
2022/10/16 01:32:51;;;;;;;10.48;4.38;;;16.00;84.40;;;;;;4987390;28;20035;-86
2022/10/16 01:35:41;;;;;;;7.40;3.60;;;16.00;84.60;;;;;;5011470;28;20049;-85
2022/10/16 01:38:10;;;;;;;6.28;3.97;;;16.00;84.70;;;;;;5011606;28;20110;-85
2022/10/16 01:40:39;;;;;;;10.82;3.67;;;16.00;84.50;;;;;;5008748;28;20034;-85
2022/10/16 01:43:14;;;;;;;7.55;3.22;;;16.00;84.60;;;;;;4976349;28;20026;-86
2022/10/16 01:45:43;;;;;;;7.80;3.25;;;16.00;84.50;;;;;;4977785;28;20090;-85
2022/10/16 01:48:13;;;;;;;7.47;3.40;;;16.00;84.60;;;;;;4977190;28;20030;-85
2022/10/16 01:50:41;;;;;;;8.68;3.65;;;16.00;84.50;;;;;;4982976;28;20030;-85
2022/10/16 01:53:11;;;;;;;7.32;3.78;;;16.00;84.40;;;;;;4996187;28;20073;-86
2022/10/16 01:55:44;;;;;;;7.90;3.37;;;16.00;84.60;;;;;;4995347;28;20041;-85
2022/10/16 01:58:12;;;;;;;5.15;3.33;;;16.00;84.80;;;;;;4996238;28;20034;-86
2022/10/16 02:00:41;;;;;;;9.50;4.00;;;16.00;84.80;;;;;;4995061;28;20034;-85
2022/10/16 02:03:08;;;;;;;7.68;3.63;;;16.00;84.80;;;;;;5011195;28;20041;-85
2022/10/16 02:05:42;;;;;;;7.30;3.03;;;16.00;84.90;;;;;;4996668;28;20031;-85
2022/10/16 02:08:08;;;;;;;9.35;3.08;;;16.00;84.70;;;;;;5011203;28;20096;-85
2022/10/16 02:10:36;;;;;;;9.63;3.72;;;16.00;84.60;;;;;;4984525;28;20041;-85
2022/10/16 02:13:23;;;;;;;7.38;2.92;;;15.90;84.70;;;;;;4975526;28;20027;-86
2022/10/16 02:15:49;;;;;;;4.97;2.75;;;15.90;84.60;;;;;;4991304;28;20488;-86
2022/10/16 02:18:15;;;;;;;7.03;3.30;;;15.90;84.70;;;;;;4976128;28;20433;-86
2022/10/16 02:21:13;;;;;;;8.30;2.95;;;15.90;84.60;;;;;;4974580;28;20030;-86
2022/10/16 02:23:58;;;;;;;5.70;2.85;;;15.90;84.60;;;;;;5010177;28;20030;-85
2022/10/16 02:26:34;;;;;;;7.43;3.10;;;15.90;84.40;;;;;;4995670;28;20072;-85
2022/10/16 02:29:06;;;;;;;5.35;3.08;;;15.90;84.40;;;;;;4996283;28;20525;-85
2022/10/16 02:31:35;;;;;;;8.27;3.85;;;15.90;84.40;;;;;;4995654;28;20018;-85
2022/10/16 02:34:04;;;;;;;10.80;3.35;;;15.90;84.50;;;;;;4995752;28;20031;-85
2022/10/16 02:36:32;;;;;;;8.47;2.93;;;15.90;84.60;;;;;;4995740;28;20026;-85
2022/10/16 02:39:00;;;;;;;8.20;3.45;;;15.90;84.80;;;;;;4987190;28;20046;-85
2022/10/16 02:41:26;;;;;;;6.88;3.17;;;15.90;84.70;;;;;;4976592;28;20659;-85
2022/10/16 02:43:51;;;;;;;8.93;3.92;;;15.90;84.60;;;;;;4974765;28;20046;-85
2022/10/16 02:46:18;;;;;;;8.13;2.95;;;15.90;84.60;;;;;;4974864;28;20510;-85
2022/10/16 02:48:43;;;;;;;5.53;2.70;;;15.90;84.50;;;;;;4975439;28;20066;-85
2022/10/16 02:51:09;;;;;;;9.43;2.70;;;15.90;84.50;;;;;;4976263;28;20031;-84
2022/10/16 02:53:34;;;;;;;7.30;2.95;;;15.90;84.40;;;;;;4991008;28;20094;-85
2022/10/16 02:56:03;;;;;;;7.45;3.25;;;15.80;84.40;;;;;;4994848;28;20030;-85
2022/10/16 02:58:28;;;;;;;6.20;3.28;;;15.80;84.60;;;;;;4980321;28;20026;-85
2022/10/16 03:00:55;;;;;;;7.88;3.70;;;15.80;84.70;;;;;;4979805;28;20110;-85
2022/10/16 03:03:21;;;;;;;9.85;2.95;;;15.80;84.60;;;;;;4994991;28;20030;-85
2022/10/16 03:05:46;;;;;;;8.05;3.92;;;15.80;84.70;;;;;;4978796;28;20577;-85
2022/10/16 03:08:13;;;;;;;7.38;3.78;;;15.80;84.60;;;;;;4994916;28;20079;-86
2022/10/16 03:10:39;;;;;;;5.55;3.17;;;15.80;84.60;;;;;;4978772;28;20034;-85
2022/10/16 03:13:22;;;;;;;7.60;3.35;;;15.80;84.70;;;;;;4977840;28;20478;-85
2022/10/16 03:15:48;;;;;;;8.30;4.70;;;15.80;84.70;;;;;;4979804;28;20041;-85
2022/10/16 03:18:13;;;;;;;9.07;2.90;;;15.80;84.70;;;;;;4996064;28;20039;-86
2022/10/16 03:20:39;;;;;;;7.90;4.07;;;15.80;84.80;;;;;;4999739;28;20077;-85
2022/10/16 03:23:04;;;;;;;8.60;3.40;;;15.80;84.80;;;;;;5025177;28;20058;-85
2022/10/16 03:25:30;;;;;;;10.10;3.47;;;15.80;84.70;;;;;;5034532;28;20058;-85
2022/10/16 03:27:56;;;;;;;9.38;4.18;;;15.80;84.60;;;;;;4998516;28;20481;-85
2022/10/16 03:30:24;;;;;;;10.48;3.72;;;15.80;84.70;;;;;;4998291;28;20084;-85
2022/10/16 03:32:53;;;;;;;9.98;3.65;;;15.80;84.80;;;;;;4997801;28;20037;-85
2022/10/16 03:35:19;;;;;;;12.45;3.70;;;15.80;84.90;;;;;;5013152;28;20027;-85
2022/10/16 03:37:45;;;;;;;10.70;3.97;;;15.80;85.00;;;;;;4998902;28;20038;-85
2022/10/16 03:40:11;;;;;;;10.43;3.25;;;15.80;84.90;;;;;;4998669;28;20445;-85
2022/10/16 03:42:37;;;;;;;8.80;3.97;;;15.80;85.10;;;;;;4998895;28;20062;-85
2022/10/16 03:45:03;;;;;;;6.82;3.60;;;15.80;85.10;;;;;;4998081;28;20540;-85
2022/10/16 03:47:28;;;;;;;8.45;3.17;;;15.80;85.10;;;;;;5012868;28;20030;-86
2022/10/16 03:49:54;;;;;;;8.48;3.83;;;15.80;85.00;;;;;;5013742;28;20030;-85
2022/10/16 03:52:20;;;;;;;10.95;3.50;;;15.80;85.00;;;;;;4997024;28;20081;-86
2022/10/16 03:54:45;;;;;;;10.07;4.07;;;15.80;85.00;;;;;;4985139;28;20026;-85
2022/10/16 03:57:11;;;;;;;11.18;3.85;;;15.80;85.00;;;;;;4978954;28;20086;-85
2022/10/16 03:59:36;;;;;;;7.97;3.50;;;15.80;85.10;;;;;;4979201;28;20030;-84
2022/10/16 04:02:02;;;;;;;13.15;4.13;;;15.80;85.10;;;;;;4988312;28;20473;-85
2022/10/16 04:04:28;;;;;;;11.55;4.50;;;15.80;85.30;;;;;;4998372;28;20071;-85
2022/10/16 04:06:53;;;;;;;12.57;3.92;;;15.80;85.50;;;;;;4995216;28;20030;-85
2022/10/16 04:09:19;;;;;;;9.02;3.95;;;15.80;85.30;;;;;;4984814;28;20396;-85
2022/10/16 04:11:45;;;;;;;11.73;3.95;;;15.80;85.20;;;;;;4979271;28;20042;-85
2022/10/16 04:14:10;;;;;;;8.57;3.72;;;15.80;85.10;;;;;;4993421;28;20046;-85
2022/10/16 04:16:36;;;;;;;8.55;3.65;;;15.80;85.10;;;;;;4993497;28;20035;-85
2022/10/16 04:19:02;;;;;;;9.13;3.53;;;15.90;85.20;;;;;;4978866;28;20026;-85
2022/10/16 04:21:27;;;;;;;10.73;4.18;;;15.80;85.20;;;;;;4992015;28;20038;-85
2022/10/16 04:23:53;;;;;;;9.35;3.70;;;15.80;85.20;;;;;;5015682;28;20029;-86
2022/10/16 04:26:19;;;;;;;11.10;3.60;;;15.90;85.20;;;;;;5017229;28;20527;-86
2022/10/16 04:28:44;;;;;;;8.50;3.67;;;15.80;85.10;;;;;;5017753;28;20022;-85
2022/10/16 04:31:10;;;;;;;10.23;3.38;;;15.90;85.20;;;;;;4998976;28;20125;-85
2022/10/16 04:33:35;;;;;;;8.63;3.65;;;15.90;85.30;;;;;;4977191;28;20027;-85
2022/10/16 04:36:02;;;;;;;9.15;3.47;;;15.90;85.30;;;;;;4995164;28;20101;-85
2022/10/16 04:38:28;;;;;;;11.40;4.20;;;15.90;85.30;;;;;;4996610;28;20029;-84
2022/10/16 04:40:54;;;;;;;10.25;4.53;;;15.80;85.50;;;;;;4994409;28;20038;-85
2022/10/16 04:43:20;;;;;;;11.65;4.25;;;15.90;85.40;;;;;;4977750;28;20022;-85
2022/10/16 04:45:46;;;;;;;12.25;4.40;;;15.90;85.20;;;;;;4977944;28;20073;-85
2022/10/16 04:48:11;;;;;;;12.23;4.05;;;15.90;85.30;;;;;;4997608;28;20019;-85
2022/10/16 04:50:37;;;;;;;14.45;4.32;;;16.00;85.30;;;;;;5013105;28;20034;-85
2022/10/16 04:53:03;;;;;;;7.93;3.83;;;16.00;85.20;;;;;;4976515;28;20030;-85
2022/10/16 04:55:41;;;;;;;7.75;3.65;;;16.00;85.20;;;;;;4977857;28;20465;-86
2022/10/16 04:58:06;;;;;;;13.93;4.45;;;16.00;85.30;;;;;;4978352;28;20529;-85
2022/10/16 05:00:32;;;;;;;8.02;4.10;;;16.00;85.40;;;;;;4976642;28;20155;-85
2022/10/16 05:02:59;;;;;;;12.70;4.40;;;16.00;85.40;;;;;;4988824;28;20022;-85
2022/10/16 05:05:25;;;;;;;8.75;3.50;;;16.00;85.20;;;;;;4987199;28;20084;-85
2022/10/16 05:07:50;;;;;;;10.15;3.58;;;16.00;85.30;;;;;;4989678;28;20022;-85
2022/10/16 05:10:16;;;;;;;13.02;4.47;;;16.00;85.10;;;;;;4997028;28;20045;-85
2022/10/16 05:12:42;;;;;;;13.43;4.60;;;16.00;85.00;;;;;;4997626;28;20026;-85
2022/10/16 05:15:08;;;;;;;11.80;3.78;;;16.00;85.00;;;;;;4996077;28;20051;-85
2022/10/16 05:17:34;;;;;;;9.90;4.22;;;16.00;85.00;;;;;;4996338;28;20489;-85
2022/10/16 05:20:00;;;;;;;12.82;5.15;;;16.10;84.90;;;;;;4997659;28;20045;-85
2022/10/16 05:22:25;;;;;;;11.05;3.83;;;16.10;85.00;;;;;;5003035;28;20026;-85
2022/10/16 05:24:51;;;;;;;13.23;4.35;;;16.10;84.90;;;;;;5017234;28;20802;-85
2022/10/16 05:27:19;;;;;;;9.80;4.80;;;16.10;84.80;;;;;;4995976;28;20038;-85
2022/10/16 05:29:48;;;;;;;13.95;4.55;;;16.10;84.80;;;;;;4976697;28;20062;-84
2022/10/16 05:32:16;;;;;;;13.23;4.63;;;16.10;84.90;;;;;;4977947;28;20050;-85
2022/10/16 05:34:42;;;;;;;10.43;4.70;;;16.20;84.80;;;;;;4994602;28;20109;-85
2022/10/16 05:37:08;;;;;;;13.20;4.65;;;16.20;84.80;;;;;;4995822;28;20065;-86
2022/10/16 05:39:33;;;;;;;13.25;4.90;;;16.20;84.90;;;;;;4995837;28;20022;-85
2022/10/16 05:41:59;;;;;;;17.13;5.05;;;16.10;85.00;;;;;;4996709;28;20031;-85
2022/10/16 05:44:24;;;;;;;14.43;4.75;;;16.10;85.20;;;;;;4996465;28;20095;-85
2022/10/16 05:46:55;;;;;;;10.20;4.53;;;16.10;85.00;;;;;;4994778;28;20536;-84
2022/10/16 05:49:21;;;;;;;15.60;4.88;;;16.10;84.90;;;;;;4985832;28;20077;-85
2022/10/16 05:51:46;;;;;;;13.65;5.38;;;16.10;84.90;;;;;;4992114;28;20031;-85
2022/10/16 05:54:12;;;;;;;12.68;5.03;;;16.20;85.00;;;;;;4975596;28;20037;-83
2022/10/16 05:56:38;;;;;;;12.35;3.83;;;16.20;85.00;;;;;;4980960;28;20395;-84
2022/10/16 05:59:05;;;;;;;14.63;5.63;;;16.20;85.10;;;;;;4995842;28;20093;-89
2022/10/16 06:01:31;;;;;;;19.65;5.93;;;16.20;85.30;;;;;;4991865;28;20034;-82
2022/10/16 06:03:58;;;;;;;16.08;5.03;;;16.10;85.60;;;;;;4988406;28;20049;-83
2022/10/16 06:06:26;;;;;;;13.45;4.85;;;16.10;85.60;;;;;;4985840;28;20102;-83
2022/10/16 06:08:52;;;;;;;11.07;5.13;;;16.10;85.50;;;;;;4986428;28;20026;-83
2022/10/16 06:11:27;;;;;;;13.02;5.22;;;16.00;85.60;;;;;;4985727;28;20125;-86
2022/10/16 06:13:56;;;;;;;17.10;5.38;;;16.10;85.90;;;;;;4984408;28;20039;-86
2022/10/16 06:16:22;;;;;;;13.52;5.15;;;16.00;86.00;;;;;;4987004;28;20444;-84
2022/10/16 06:18:51;;;;;;;8.65;4.70;;;16.00;86.00;;;;;;4984914;28;20023;-83
2022/10/16 06:21:21;;;;;;;11.85;5.15;;;16.10;86.00;;;;;;4986486;28;20109;-83
2022/10/16 06:23:47;;;;;;;16.23;5.63;;;16.00;86.10;;;;;;4992806;28;20031;-82
2022/10/16 06:26:16;;;;;;;15.38;5.40;;;16.00;86.10;;;;;;4990506;28;20039;-83
2022/10/16 06:28:41;;;;;;;13.60;5.35;;;16.00;86.20;;;;;;4985370;28;20031;-87
2022/10/16 06:31:09;;;;;;;14.38;5.60;;;16.00;86.10;;;;;;4981484;28;20030;-88
2022/10/16 06:33:35;;;;;;;15.48;5.85;;;16.00;86.10;;;;;;4994295;28;20030;-85
2022/10/16 06:36:07;;;;;;;14.02;5.70;;;16.10;85.80;;;;;;4990573;28;20108;-86
2022/10/16 06:38:32;;;;;;;13.40;5.43;;;16.20;85.80;;;;;;4974877;28;20031;-88
2022/10/16 06:40:58;;;;;;;13.38;5.25;;;16.20;85.80;;;;;;4987082;28;20098;-86
2022/10/16 06:43:25;;;;;;;14.10;5.50;;;16.10;86.00;;;;;;4994474;28;20086;-90
2022/10/16 06:45:52;;;;;;;17.08;6.22;;;16.00;86.30;;;;;;4995491;28;20160;-86
2022/10/16 06:48:19;;;;;;;14.57;5.45;;;16.10;86.40;;;;;;4993428;28;20867;-87
2022/10/16 06:51:03;;;;;;;15.18;5.93;;;16.10;86.40;;;;;;4975405;28;20042;-85
2022/10/16 06:53:32;;;;;;;15.40;5.47;;;16.00;86.50;;;;;;4990381;28;20049;-84
2022/10/16 06:55:58;;;;;;;16.00;5.53;;;16.00;86.50;;;;;;4995354;28;20092;-83
2022/10/16 06:58:24;;;;;;;15.13;5.25;;;16.00;86.60;;;;;;4993141;28;20401;-81
2022/10/16 07:00:56;;;;;;;15.02;5.97;;;16.10;86.60;;;;;;4958988;28;20041;-86
2022/10/16 07:03:21;;;;;;;14.50;5.30;;;16.10;86.50;;;;;;4991299;28;20026;-88
2022/10/16 07:05:47;;;;;;;14.80;6.63;;;16.20;86.40;;;;;;4994537;28;20574;-88
2022/10/16 07:08:12;;;;;;;17.58;7.07;;;16.20;86.40;;;;;;4992565;28;20493;-88
2022/10/16 07:10:38;;;;;;;22.13;7.28;;;16.20;86.30;;;;;;4993911;28;20088;-88
2022/10/16 07:13:04;;;;;;;16.33;6.82;;;16.20;86.30;;;;;;4991428;28;20030;-88
2022/10/16 07:15:29;;;;;;;16.15;5.70;;;16.20;86.20;;;;;;4988455;28;20096;-86
2022/10/16 07:17:55;;;;;;;17.73;6.45;;;16.20;86.20;;;;;;4986360;28;20019;-87
2022/10/16 07:20:21;;;;;;;14.65;6.30;;;16.30;86.10;;;;;;4987719;28;20480;-87
2022/10/16 07:22:46;;;;;;;14.20;5.00;;;16.30;86.50;;;;;;4992016;28;21573;-88
2022/10/16 07:25:12;;;;;;;13.88;5.15;;;16.30;86.50;;;;;;4989178;28;20034;-87
2022/10/16 07:27:38;;;;;;;12.27;4.57;;;16.30;86.60;;;;;;4991108;28;20026;-86
2022/10/16 07:30:04;;;;;;;12.38;4.78;;;16.30;86.70;;;;;;4991716;28;20789;-87
2022/10/16 07:32:31;;;;;;;10.60;3.83;;;16.30;86.80;;;;;;4990982;28;20684;-86
2022/10/16 07:34:57;;;;;;;8.50;3.83;;;16.30;86.80;;;;;;4992272;28;20034;-87
2022/10/16 07:37:22;;;;;;;13.55;3.92;;;16.30;86.70;;;;;;4993717;28;20045;-87
2022/10/16 07:39:48;;;;;;;9.57;4.15;;;16.30;86.70;;;;;;4992160;28;20080;-86
2022/10/16 07:42:14;;;;;;;8.73;4.20;;;16.30;86.50;;;;;;4995989;28;20493;-86
2022/10/16 07:44:40;;;;;;;10.88;3.45;;;16.40;86.30;;;;;;5000841;28;20034;-88
2022/10/16 07:47:07;;;;;;;8.07;3.15;;;16.40;86.20;;;;;;4990098;28;20053;-87
2022/10/16 07:49:32;;;;;;;8.13;3.40;;;16.50;86.00;;;;;;4995975;28;20049;-89
2022/10/16 07:51:58;;;;;;;7.97;2.20;;;16.60;85.60;;;;;;4994178;28;20022;-88
2022/10/16 07:54:24;;;;;;;4.70;1.00;;;16.60;85.30;;;;;;4997591;28;20109;-88
2022/10/16 07:56:49;;;;;;;5.47;2.35;;;16.50;84.80;;;;;;4995640;28;20058;-88
2022/10/16 07:59:15;;;;;;;2.70;1.40;;;16.50;84.80;;;;;;4988420;28;20030;-89
2022/10/16 08:01:42;;;;;;;4.15;1.52;;;16.50;84.50;;;;;;4988987;28;20033;-87
2022/10/16 08:04:08;;;;;;;4.57;1.70;;;16.50;84.80;;;;;;4993595;28;20654;-88
2022/10/16 08:06:39;;;;;;;2.95;1.40;;;16.50;84.60;;;;;;4989968;28;20034;-88
2022/10/16 08:09:06;;;;;;;3.47;1.67;;;16.60;84.30;;;;;;4989826;28;20065;-88
2022/10/16 08:11:32;;;;;;;5.25;1.33;;;16.80;84.10;;;;;;4993969;28;20409;-89
2022/10/16 08:13:58;;;;;;;4.68;1.80;;;16.80;83.90;;;;;;4993742;28;20075;-85
2022/10/16 08:16:24;;;;;;;3.75;1.50;;;17.00;83.60;;;;;;4996484;28;20022;-86
2022/10/16 08:18:51;;;;;;;2.72;1.13;;;17.20;83.40;;;;;;4994520;28;20038;-87
2022/10/16 08:21:19;;;;;;;4.60;1.75;;;17.20;83.00;;;;;;4994472;28;20440;-84
2022/10/16 08:23:44;;;;;;;3.72;1.45;;;17.10;82.60;;;;;;4986288;28;20026;-91
2022/10/16 08:26:11;;;;;;;4.63;1.60;;;17.30;83.00;;;;;;4988134;28;20049;-87
2022/10/16 08:28:37;;;;;;;3.80;1.75;;;17.30;82.80;;;;;;4990238;28;20026;-90
2022/10/16 08:31:11;;;;;;;3.47;1.67;;;17.40;82.80;;;;;;4993843;28;20481;-89
2022/10/16 08:33:38;;;;;;;4.80;1.90;;;17.30;82.90;;;;;;4995350;28;20026;-89
2022/10/16 08:36:05;;;;;;;3.88;1.70;;;17.30;83.10;;;;;;4995824;28;20413;-90
2022/10/16 08:38:31;;;;;;;2.03;1.40;;;17.30;82.80;;;;;;4992787;28;20081;-88
2022/10/16 08:41:28;;;;;;;5.45;1.63;;;17.30;83.10;;;;;;5009361;28;20030;-89
2022/10/16 08:44:31;;;;;;;2.50;1.25;;;17.20;83.30;;;;;;4990837;28;20412;-90
2022/10/16 08:47:12;;;;;;;6.50;1.30;;;17.20;83.30;;;;;;4971133;28;20030;-90
2022/10/16 08:49:42;;;;;;;5.20;1.35;;;17.30;81.70;;;;;;4993564;28;20034;-90
2022/10/16 08:52:13;;;;;;;3.35;0.95;;;17.30;81.90;;;;;;4993859;28;20035;-90
2022/10/16 08:54:46;;;;;;;2.42;0.82;;;17.30;81.40;;;;;;4994088;28;20137;-90
2022/10/16 08:57:23;;;;;;;1.30;1.02;;;17.30;81.30;;;;;;4995356;28;20393;-90
2022/10/16 08:59:49;;;;;;;3.90;0.77;;;17.30;81.00;;;;;;4991902;28;20026;-88
2022/10/16 09:02:30;;;;;;;4.90;1.23;;;17.30;81.00;;;;;;4988730;28;20034;-90
2022/10/16 09:05:22;;;;;;;2.53;1.00;;;17.50;80.80;;;;;;4986579;28;20026;-90
2022/10/16 09:07:56;;;;;;;2.80;1.58;;;17.60;80.60;;;;;;4982273;28;20092;-89
2022/10/16 09:10:33;;;;;;;3.38;1.40;;;17.70;80.10;;;;;;4991892;28;20057;-89
2022/10/16 09:13:18;;;;;;;2.13;1.02;;;17.70;79.60;;;;;;5000816;28;20878;-89
2022/10/16 09:16:01;;;;;;;1.67;0.85;;;17.80;80.10;;;;;;4985099;28;20035;-90
2022/10/16 09:18:39;;;;;;;2.92;0.88;;;17.80;79.70;;;;;;4991117;28;20030;-87
2022/10/16 09:21:28;;;;;;;2.72;1.00;;;17.90;79.40;;;;;;4986566;28;20109;-75
2022/10/16 09:23:58;;;;;;;4.32;1.08;;;17.80;78.40;;;;;;4998981;28;20034;-75
2022/10/16 09:26:23;;;;;;;1.13;0.65;;;17.80;78.70;;;;;;4994664;28;20391;-75
2022/10/16 09:28:52;;;;;;;2.83;1.10;;;17.90;78.60;;;;;;4991652;28;20042;-75
2022/10/16 09:31:20;;;;;;;2.40;1.13;;;17.80;78.50;;;;;;5008436;28;20034;-75
2022/10/16 09:33:58;;;;;;;1.55;0.70;;;17.80;79.00;;;;;;4996200;28;20501;-75
2022/10/16 09:36:25;;;;;;;1.48;0.80;;;17.90;78.70;;;;;;4994883;28;20473;-76
2022/10/16 09:39:07;;;;;;;3.58;0.60;;;17.80;78.70;;;;;;4995968;28;20022;-75
2022/10/16 09:41:36;;;;;;;1.92;0.70;;;17.90;78.30;;;;;;4958002;28;20105;-75
2022/10/16 09:44:05;;;;;;;2.13;0.57;;;17.80;76.30;;;;;;4995777;28;20022;-75
2022/10/16 09:46:37;;;;;;;2.03;0.70;;;17.90;77.30;;;;;;4994787;28;20081;-75
2022/10/16 09:49:24;;;;;;;1.42;0.70;;;17.90;76.10;;;;;;4992023;28;20125;-75
2022/10/16 09:51:51;;;;;;;4.47;0.80;;;17.90;76.20;;;;;;4990595;28;20084;-75
2022/10/16 09:54:19;;;;;;;4.25;0.95;;;17.90;76.30;;;;;;4992798;28;20034;-75
2022/10/16 09:56:48;;;;;;;2.42;0.57;;;18.00;75.80;;;;;;4993037;28;20022;-76
2022/10/16 09:59:15;;;;;;;0.90;0.50;;;18.00;75.40;;;;;;4994585;28;20026;-75
2022/10/16 10:01:55;;;;;;;3.65;0.50;;;18.10;75.70;;;;;;4992344;28;20509;-75
2022/10/16 10:04:23;;;;;;;1.63;0.57;;;18.30;75.00;;;;;;4994545;28;20026;-75
2022/10/16 10:06:55;;;;;;;1.48;0.40;;;18.50;75.30;;;;;;4991625;28;20437;-75
2022/10/16 10:09:29;;;;;;;1.75;0.50;;;18.50;75.00;;;;;;4992503;28;20105;-75
2022/10/16 10:12:00;;;;;;;3.92;0.50;;;18.70;75.20;;;;;;4990228;28;20511;-75
2022/10/16 10:14:36;;;;;;;1.05;0.50;;;18.60;73.30;;;;;;4993651;28;20047;-75
2022/10/16 10:17:13;;;;;;;1.58;0.50;;;18.60;74.00;;;;;;5009384;28;20022;-76
2022/10/16 10:19:54;;;;;;;3.08;0.40;;;18.60;73.50;;;;;;4981633;28;20031;-75
2022/10/16 10:22:40;;;;;;;4.18;0.60;;;18.60;73.00;;;;;;4985676;28;20087;-75
2022/10/16 10:25:12;;;;;;;1.42;0.50;;;18.50;72.60;;;;;;5010016;28;20120;-75
2022/10/16 10:28:02;;;;;;;2.30;0.55;;;18.50;73.70;;;;;;4993356;28;20151;-75
2022/10/16 10:30:46;;;;;;;;;;;18.50;74.40;;;;;;4991898;28;20038;-75
2022/10/16 10:33:36;;;;;;;0.70;0.38;;;18.50;74.10;;;;;;4989937;28;19910;-75
2022/10/16 10:36:21;;;;;;;3.50;0.50;;;18.40;74.40;;;;;;4989567;28;20049;-76
2022/10/16 10:39:10;;;;;;;3.88;0.77;;;18.30;73.70;;;;;;4987790;28;20027;-76
2022/10/16 10:41:38;;;;;;;3.33;0.65;;;18.20;74.00;;;;;;4990020;28;20489;-76
2022/10/16 10:44:41;;;;;;;1.90;0.45;;;18.00;74.20;;;;;;4978315;28;20038;-76
2022/10/16 10:47:23;;;;;;;2.22;0.60;;;18.00;75.50;;;;;;4995327;28;20026;-76
2022/10/16 10:49:57;;;;;;;3.40;0.68;;;17.90;74.70;;;;;;4993985;28;20038;-76
2022/10/16 10:52:52;;;;;;;1.02;0.60;;;17.80;75.30;;;;;;4985634;28;20037;-76
2022/10/16 10:55:37;;;;;;;2.40;0.77;;;17.80;75.20;;;;;;4974860;28;20575;-76
2022/10/16 10:58:11;;;;;;;2.15;0.55;;;17.70;76.10;;;;;;4973933;28;20030;-76
2022/10/16 11:01:01;;;;;;;1.13;0.50;;;17.70;76.10;;;;;;4976289;28;20041;-76
2022/10/16 11:03:57;;;;;;;5.20;0.93;;;17.60;76.60;;;;;;4976265;28;20030;-76
2022/10/16 11:06:42;;;;;;;0.80;0.50;;;17.60;77.40;;;;;;4976343;28;20030;-76
2022/10/16 11:09:31;;;;;;;3.78;0.82;;;17.60;77.90;;;;;;5009590;28;20030;-76
2022/10/16 11:12:03;;;;;;;5.18;0.60;;;17.50;78.10;;;;;;5001414;28;20027;-76
2022/10/16 11:14:38;;;;;;;1.98;0.70;;;17.50;78.10;;;;;;4991021;28;20042;-76
2022/10/16 11:17:25;;;;;;;2.75;1.02;;;17.50;78.30;;;;;;4979968;28;20035;-76
2022/10/16 11:19:59;;;;;;;1.75;0.77;;;17.50;78.90;;;;;;4994954;28;20023;-76
2022/10/16 11:22:29;;;;;;;5.20;0.85;;;17.50;79.70;;;;;;4991160;28;20065;-76
2022/10/16 11:25:16;;;;;;;1.77;0.88;;;17.50;79.50;;;;;;5017322;28;20030;-76
2022/10/16 11:27:56;;;;;;;2.97;1.52;;;17.40;80.10;;;;;;4999596;28;20393;-76
2022/10/16 11:30:25;;;;;;;7.15;3.95;;;17.40;79.80;;;;;;5013994;28;20034;-76
2022/10/16 11:33:06;;;;;;;10.82;4.68;;;17.40;80.00;;;;;;4996504;28;20080;-76
2022/10/16 11:36:07;;;;;;;8.57;3.78;;;17.30;80.40;;;;;;5004701;28;20485;-76
2022/10/16 11:38:51;;;;;;;6.28;4.22;;;17.30;81.00;;;;;;5014268;28;20130;-76
2022/10/16 11:41:53;;;;;;;4.25;3.22;;;17.30;81.00;;;;;;4997951;28;20022;-76
2022/10/16 11:44:37;;;;;;;5.15;2.95;;;17.40;81.30;;;;;;5017602;28;20038;-76
2022/10/16 11:47:21;;;;;;;6.25;2.60;;;17.40;81.40;;;;;;4991077;28;20026;-76
2022/10/16 11:49:49;;;;;;;5.43;2.90;;;17.40;81.70;;;;;;4995835;28;20508;-76
2022/10/16 11:52:24;;;;;;;6.13;2.45;;;17.50;81.50;;;;;;4998834;28;20020;-76
2022/10/16 11:55:00;;;;;;;4.00;2.15;;;17.50;81.40;;;;;;4998288;28;20031;-76
2022/10/16 11:57:34;;;;;;;6.05;2.95;;;17.40;81.30;;;;;;5009548;28;20082;-76
2022/10/16 12:00:08;;;;;;;4.18;2.20;;;17.40;81.80;;;;;;4993466;28;20037;-76
2022/10/16 12:02:49;;;;;;;3.55;1.85;;;17.50;82.10;;;;;;4997637;28;20050;-76
2022/10/16 12:05:25;;;;;;;5.50;1.80;;;17.30;82.10;;;;;;4998603;28;20026;-76
2022/10/16 12:08:06;;;;;;;4.30;1.45;;;17.30;82.70;;;;;;4994634;28;20535;-76
2022/10/16 12:10:36;;;;;;;2.38;1.48;;;17.30;83.20;;;;;;4998196;28;20022;-77
2022/10/16 12:13:02;;;;;;;;;;;17.20;83.40;;;;;;4988015;28;20053;-77
2022/10/16 12:15:32;;;;;;;3.58;1.25;;;17.10;83.50;;;;;;4996176;28;19926;-76
2022/10/16 12:17:57;;;;;;;2.40;1.20;;;17.00;84.10;;;;;;5003503;28;20058;-76
2022/10/16 12:20:26;;;;;;;3.63;1.60;;;17.00;84.40;;;;;;4997378;28;20026;-76
2022/10/16 12:22:59;;;;;;;3.33;1.52;;;17.10;84.40;;;;;;4998060;28;20030;-76
2022/10/16 12:25:25;;;;;;;3.22;1.58;;;17.10;84.20;;;;;;4996304;28;20034;-76
2022/10/16 12:28:01;;;;;;;4.63;1.50;;;17.20;84.10;;;;;;4997070;28;20968;-76
2022/10/16 12:30:29;;;;;;;2.78;1.67;;;17.20;84.30;;;;;;4997902;28;20030;-76
2022/10/16 12:32:57;;;;;;;6.57;1.90;;;17.30;84.40;;;;;;4996333;28;20031;-76
2022/10/16 12:35:27;;;;;;;5.13;1.98;;;17.40;84.40;;;;;;5015924;28;20026;-76
2022/10/16 12:37:53;;;;;;;4.18;2.20;;;17.40;84.50;;;;;;4997725;28;20102;-76
2022/10/16 12:40:33;;;;;;;5.32;1.80;;;17.60;84.20;;;;;;4972822;28;20042;-76
2022/10/16 12:43:10;;;;;;;;;;;17.50;83.90;;;;;;4996416;28;20065;-76
2022/10/16 12:45:36;;;;;;;3.72;1.83;;;17.40;84.10;;;;;;4996195;28;20411;-76
2022/10/16 12:48:18;;;;;;;2.78;1.88;;;17.50;84.50;;;;;;4993321;28;20042;-76
2022/10/16 12:50:44;;;;;;;3.13;1.60;;;17.70;84.60;;;;;;4992034;28;20102;-76
2022/10/16 12:53:25;;;;;;;4.43;2.35;;;17.60;84.10;;;;;;4995403;28;20496;-76
2022/10/16 12:55:59;;;;;;;4.85;2.72;;;17.60;84.90;;;;;;4990316;28;20027;-76
2022/10/16 12:58:49;;;;;;;3.65;2.30;;;17.70;85.00;;;;;;4996589;28;20122;-76
2022/10/16 13:01:24;;;;;;;4.25;2.17;;;17.80;84.80;;;;;;4996381;28;20408;-76
2022/10/16 13:04:05;;;;;;;5.18;2.35;;;17.80;84.70;;;;;;4997092;28;20053;-76
2022/10/16 13:07:06;;;;;;;6.75;2.67;;;17.90;84.80;;;;;;5012557;28;20026;-76